sensor_id;sensor_type;location;lat;lon;timestamp;P1;durP1;ratioP1;P2;durP2;ratioP2
28589;SDS011;15788;48.794;9.190;2022-09-09T00:08:00;5.25;;;1.15;;
28589;SDS011;15788;48.794;9.190;2022-09-09T00:10:38;3.97;;;1.10;;
28589;SDS011;15788;48.794;9.190;2022-09-09T00:13:48;3.40;;;1.20;;
28589;SDS011;15788;48.794;9.190;2022-09-09T00:17:21;3.45;;;1.10;;
28589;SDS011;15788;48.794;9.190;2022-09-09T00:24:43;3.65;;;1.20;;
28589;SDS011;15788;48.794;9.190;2022-09-09T00:27:54;3.83;;;1.30;;
28589;SDS011;15788;48.794;9.190;2022-09-09T00:31:26;6.03;;;1.13;;
28589;SDS011;15788;48.794;9.190;2022-09-09T00:57:31;3.95;;;1.23;;
28589;SDS011;15788;48.794;9.190;2022-09-09T01:12:50;3.83;;;1.00;;
28589;SDS011;15788;48.794;9.190;2022-09-09T01:18:48;5.45;;;1.15;;
28589;SDS011;15788;48.794;9.190;2022-09-09T01:28:10;2.22;;;1.00;;
28589;SDS011;15788;48.794;9.190;2022-09-09T01:31:11;8.90;;;1.13;;
28589;SDS011;15788;48.794;9.190;2022-09-09T01:34:27;3.03;;;1.30;;
28589;SDS011;15788;48.794;9.190;2022-09-09T01:37:22;2.95;;;0.90;;
28589;SDS011;15788;48.794;9.190;2022-09-09T01:43:34;6.15;;;1.05;;
28589;SDS011;15788;48.794;9.190;2022-09-09T01:46:31;2.13;;;0.80;;
28589;SDS011;15788;48.794;9.190;2022-09-09T01:49:00;6.57;;;1.10;;
28589;SDS011;15788;48.794;9.190;2022-09-09T01:55:06;5.00;;;1.00;;
28589;SDS011;15788;48.794;9.190;2022-09-09T02:07:00;3.00;;;0.90;;
28589;SDS011;15788;48.794;9.190;2022-09-09T02:12:36;2.25;;;0.88;;
28589;SDS011;15788;48.794;9.190;2022-09-09T02:18:36;2.28;;;1.05;;
28589;SDS011;15788;48.794;9.190;2022-09-09T02:25:01;5.25;;;1.27;;
28589;SDS011;15788;48.794;9.190;2022-09-09T02:27:35;2.67;;;0.80;;
28589;SDS011;15788;48.794;9.190;2022-09-09T02:33:18;1.98;;;0.80;;
28589;SDS011;15788;48.794;9.190;2022-09-09T02:36:12;2.40;;;0.82;;
28589;SDS011;15788;48.794;9.190;2022-09-09T02:39:33;1.63;;;0.80;;
28589;SDS011;15788;48.794;9.190;2022-09-09T02:58:52;3.75;;;1.00;;
28589;SDS011;15788;48.794;9.190;2022-09-09T03:07:22;2.22;;;0.88;;
28589;SDS011;15788;48.794;9.190;2022-09-09T03:13:32;2.70;;;0.80;;
28589;SDS011;15788;48.794;9.190;2022-09-09T03:16:17;3.80;;;1.00;;
28589;SDS011;15788;48.794;9.190;2022-09-09T03:19:07;5.22;;;1.10;;
28589;SDS011;15788;48.794;9.190;2022-09-09T03:25:52;2.25;;;1.00;;
28589;SDS011;15788;48.794;9.190;2022-09-09T03:28:58;2.63;;;0.68;;
28589;SDS011;15788;48.794;9.190;2022-09-09T03:38:31;1.20;;;0.70;;
28589;SDS011;15788;48.794;9.190;2022-09-09T03:41:31;5.38;;;0.90;;
28589;SDS011;15788;48.794;9.190;2022-09-09T03:44:16;1.77;;;0.68;;
28589;SDS011;15788;48.794;9.190;2022-09-09T03:47:24;5.78;;;0.73;;
28589;SDS011;15788;48.794;9.190;2022-09-09T03:50:04;1.42;;;0.80;;
28589;SDS011;15788;48.794;9.190;2022-09-09T03:56:05;3.95;;;0.90;;
28589;SDS011;15788;48.794;9.190;2022-09-09T04:02:06;9.73;;;1.33;;
28589;SDS011;15788;48.794;9.190;2022-09-09T04:07:52;5.65;;;0.93;;
28589;SDS011;15788;48.794;9.190;2022-09-09T04:13:33;2.75;;;1.02;;
28589;SDS011;15788;48.794;9.190;2022-09-09T04:16:39;5.18;;;0.90;;
28589;SDS011;15788;48.794;9.190;2022-09-09T04:26:11;4.18;;;0.90;;
28589;SDS011;15788;48.794;9.190;2022-09-09T04:35:19;14.80;;;1.80;;
28589;SDS011;15788;48.794;9.190;2022-09-09T04:38:22;13.18;;;1.55;;
28589;SDS011;15788;48.794;9.190;2022-09-09T04:41:15;21.38;;;1.80;;
28589;SDS011;15788;48.794;9.190;2022-09-09T04:44:00;8.20;;;1.38;;
28589;SDS011;15788;48.794;9.190;2022-09-09T04:46:47;6.47;;;1.38;;
28589;SDS011;15788;48.794;9.190;2022-09-09T04:49:47;9.75;;;1.60;;
28589;SDS011;15788;48.794;9.190;2022-09-09T04:55:12;19.65;;;1.70;;
28589;SDS011;15788;48.794;9.190;2022-09-09T05:01:48;10.13;;;1.77;;
28589;SDS011;15788;48.794;9.190;2022-09-09T05:04:17;15.07;;;1.75;;
28589;SDS011;15788;48.794;9.190;2022-09-09T05:06:58;11.80;;;1.83;;
28589;SDS011;15788;48.794;9.190;2022-09-09T05:10:10;15.95;;;2.00;;
28589;SDS011;15788;48.794;9.190;2022-09-09T05:13:07;9.52;;;1.60;;
28589;SDS011;15788;48.794;9.190;2022-09-09T05:15:55;10.82;;;1.55;;
28589;SDS011;15788;48.794;9.190;2022-09-09T05:25:40;5.72;;;1.55;;
28589;SDS011;15788;48.794;9.190;2022-09-09T05:29:02;8.10;;;1.85;;
28589;SDS011;15788;48.794;9.190;2022-09-09T05:41:08;3.05;;;1.20;;
28589;SDS011;15788;48.794;9.190;2022-09-09T05:44:03;4.50;;;1.20;;
28589;SDS011;15788;48.794;9.190;2022-09-09T05:46:51;2.40;;;1.17;;
28589;SDS011;15788;48.794;9.190;2022-09-09T05:50:06;8.90;;;1.50;;
28589;SDS011;15788;48.794;9.190;2022-09-09T05:53:11;4.97;;;1.20;;
28589;SDS011;15788;48.794;9.190;2022-09-09T05:59:18;5.53;;;1.52;;
28589;SDS011;15788;48.794;9.190;2022-09-09T06:02:02;6.80;;;1.77;;
28589;SDS011;15788;48.794;9.190;2022-09-09T06:05:01;7.38;;;1.38;;
28589;SDS011;15788;48.794;9.190;2022-09-09T06:11:14;8.65;;;1.70;;
28589;SDS011;15788;48.794;9.190;2022-09-09T06:14:05;5.05;;;1.40;;
28589;SDS011;15788;48.794;9.190;2022-09-09T06:17:05;5.07;;;1.10;;
28589;SDS011;15788;48.794;9.190;2022-09-09T06:26:34;12.65;;;1.67;;
28589;SDS011;15788;48.794;9.190;2022-09-09T06:32:27;4.85;;;1.50;;
28589;SDS011;15788;48.794;9.190;2022-09-09T06:35:28;8.07;;;1.50;;
28589;SDS011;15788;48.794;9.190;2022-09-09T06:41:04;9.80;;;1.80;;
28589;SDS011;15788;48.794;9.190;2022-09-09T06:43:52;11.48;;;1.70;;
28589;SDS011;15788;48.794;9.190;2022-09-09T06:50:16;14.27;;;1.93;;
28589;SDS011;15788;48.794;9.190;2022-09-09T06:53:06;9.63;;;1.58;;
28589;SDS011;15788;48.794;9.190;2022-09-09T06:55:40;11.77;;;1.25;;
28589;SDS011;15788;48.794;9.190;2022-09-09T06:58:11;6.97;;;1.80;;
28589;SDS011;15788;48.794;9.190;2022-09-09T07:04:06;10.70;;;1.40;;
28589;SDS011;15788;48.794;9.190;2022-09-09T07:06:58;5.07;;;1.40;;
28589;SDS011;15788;48.794;9.190;2022-09-09T07:13:01;8.90;;;1.33;;
28589;SDS011;15788;48.794;9.190;2022-09-09T07:15:29;7.38;;;1.35;;
28589;SDS011;15788;48.794;9.190;2022-09-09T07:18:26;5.10;;;1.20;;
28589;SDS011;15788;48.794;9.190;2022-09-09T07:27:59;5.30;;;1.23;;
28589;SDS011;15788;48.794;9.190;2022-09-09T07:34:18;6.07;;;1.20;;
28589;SDS011;15788;48.794;9.190;2022-09-09T07:37:01;4.07;;;1.10;;
28589;SDS011;15788;48.794;9.190;2022-09-09T07:39:51;2.53;;;1.17;;
28589;SDS011;15788;48.794;9.190;2022-09-09T07:42:46;4.57;;;1.25;;
28589;SDS011;15788;48.794;9.190;2022-09-09T07:48:31;7.13;;;1.20;;
28589;SDS011;15788;48.794;9.190;2022-09-09T07:51:28;4.30;;;1.15;;
28589;SDS011;15788;48.794;9.190;2022-09-09T07:57:28;12.27;;;1.65;;
28589;SDS011;15788;48.794;9.190;2022-09-09T08:07:24;4.07;;;1.20;;
28589;SDS011;15788;48.794;9.190;2022-09-09T08:14:23;7.18;;;1.50;;
28589;SDS011;15788;48.794;9.190;2022-09-09T08:17:48;7.30;;;1.00;;
28589;SDS011;15788;48.794;9.190;2022-09-09T08:24:26;4.40;;;0.93;;
28589;SDS011;15788;48.794;9.190;2022-09-09T08:36:30;4.35;;;1.02;;
28589;SDS011;15788;48.794;9.190;2022-09-09T08:46:15;4.35;;;1.38;;
28589;SDS011;15788;48.794;9.190;2022-09-09T08:55:29;4.00;;;1.30;;
28589;SDS011;15788;48.794;9.190;2022-09-09T09:15:05;2.38;;;1.05;;
28589;SDS011;15788;48.794;9.190;2022-09-09T09:18:36;4.47;;;1.00;;
28589;SDS011;15788;48.794;9.190;2022-09-09T09:24:29;6.53;;;0.95;;
28589;SDS011;15788;48.794;9.190;2022-09-09T09:30:22;7.00;;;1.05;;
28589;SDS011;15788;48.794;9.190;2022-09-09T09:36:11;2.50;;;0.80;;
28589;SDS011;15788;48.794;9.190;2022-09-09T09:39:04;4.50;;;0.90;;
28589;SDS011;15788;48.794;9.190;2022-09-09T09:42:11;3.72;;;1.10;;
28589;SDS011;15788;48.794;9.190;2022-09-09T09:48:14;3.05;;;0.93;;
28589;SDS011;15788;48.794;9.190;2022-09-09T09:50:46;3.55;;;0.90;;
28589;SDS011;15788;48.794;9.190;2022-09-09T09:56:28;3.08;;;0.77;;
28589;SDS011;15788;48.794;9.190;2022-09-09T10:30:20;2.78;;;0.88;;
28589;SDS011;15788;48.794;9.190;2022-09-09T10:36:28;3.55;;;0.93;;
28589;SDS011;15788;48.794;9.190;2022-09-09T10:42:44;3.97;;;1.20;;
28589;SDS011;15788;48.794;9.190;2022-09-09T11:08:44;4.88;;;1.10;;
28589;SDS011;15788;48.794;9.190;2022-09-09T11:15:21;3.03;;;1.00;;
28589;SDS011;15788;48.794;9.190;2022-09-09T11:18:54;4.82;;;0.95;;
28589;SDS011;15788;48.794;9.190;2022-09-09T11:21:46;6.47;;;1.20;;
28589;SDS011;15788;48.794;9.190;2022-09-09T11:42:29;2.22;;;0.95;;
28589;SDS011;15788;48.794;9.190;2022-09-09T11:52:40;5.78;;;0.80;;
28589;SDS011;15788;48.794;9.190;2022-09-09T12:05:59;1.95;;;0.80;;
28589;SDS011;15788;48.794;9.190;2022-09-09T12:16:44;3.88;;;0.95;;
28589;SDS011;15788;48.794;9.190;2022-09-09T12:19:38;1.67;;;0.60;;
28589;SDS011;15788;48.794;9.190;2022-09-09T12:22:33;5.03;;;1.05;;
28589;SDS011;15788;48.794;9.190;2022-09-09T12:42:03;2.70;;;1.00;;
28589;SDS011;15788;48.794;9.190;2022-09-09T12:55:21;1.85;;;0.93;;
28589;SDS011;15788;48.794;9.190;2022-09-09T12:58:23;3.78;;;1.38;;
28589;SDS011;15788;48.794;9.190;2022-09-09T13:01:29;4.53;;;1.10;;
28589;SDS011;15788;48.794;9.190;2022-09-09T13:10:21;15.15;;;1.08;;
28589;SDS011;15788;48.794;9.190;2022-09-09T13:16:18;6.72;;;0.90;;
28589;SDS011;15788;48.794;9.190;2022-09-09T13:29:16;2.90;;;0.70;;
28589;SDS011;15788;48.794;9.190;2022-09-09T13:32:03;2.95;;;0.82;;
28589;SDS011;15788;48.794;9.190;2022-09-09T13:35:04;3.35;;;0.60;;
28589;SDS011;15788;48.794;9.190;2022-09-09T13:44:06;1.33;;;0.50;;
28589;SDS011;15788;48.794;9.190;2022-09-09T13:47:04;1.35;;;0.77;;
28589;SDS011;15788;48.794;9.190;2022-09-09T13:52:57;1.65;;;0.80;;
28589;SDS011;15788;48.794;9.190;2022-09-09T13:56:11;2.67;;;0.77;;
28589;SDS011;15788;48.794;9.190;2022-09-09T13:58:59;1.80;;;0.73;;
28589;SDS011;15788;48.794;9.190;2022-09-09T14:05:33;3.65;;;0.60;;
28589;SDS011;15788;48.794;9.190;2022-09-09T14:08:34;4.00;;;0.73;;
28589;SDS011;15788;48.794;9.190;2022-09-09T14:15:09;4.85;;;0.82;;
28589;SDS011;15788;48.794;9.190;2022-09-09T14:20:52;2.78;;;0.82;;
28589;SDS011;15788;48.794;9.190;2022-09-09T14:23:40;5.25;;;0.85;;
28589;SDS011;15788;48.794;9.190;2022-09-09T14:26:26;2.65;;;0.70;;
28589;SDS011;15788;48.794;9.190;2022-09-09T14:29:19;2.03;;;0.68;;
28589;SDS011;15788;48.794;9.190;2022-09-09T14:32:12;4.00;;;0.80;;
28589;SDS011;15788;48.794;9.190;2022-09-09T14:34:55;5.78;;;0.90;;
28589;SDS011;15788;48.794;9.190;2022-09-09T14:37:35;4.78;;;0.63;;
28589;SDS011;15788;48.794;9.190;2022-09-09T14:40:09;4.78;;;1.00;;
28589;SDS011;15788;48.794;9.190;2022-09-09T14:42:40;2.40;;;0.63;;
28589;SDS011;15788;48.794;9.190;2022-09-09T14:45:35;8.90;;;0.85;;
28589;SDS011;15788;48.794;9.190;2022-09-09T14:48:28;1.95;;;0.73;;
28589;SDS011;15788;48.794;9.190;2022-09-09T14:54:04;3.65;;;0.82;;
28589;SDS011;15788;48.794;9.190;2022-09-09T14:56:32;5.40;;;0.88;;
28589;SDS011;15788;48.794;9.190;2022-09-09T14:59:21;4.15;;;0.70;;
28589;SDS011;15788;48.794;9.190;2022-09-09T15:01:52;2.45;;;0.70;;
28589;SDS011;15788;48.794;9.190;2022-09-09T15:04:26;11.18;;;1.20;;
28589;SDS011;15788;48.794;9.190;2022-09-09T15:06:54;5.72;;;0.88;;
28589;SDS011;15788;48.794;9.190;2022-09-09T15:09:25;3.70;;;0.70;;
28589;SDS011;15788;48.794;9.190;2022-09-09T15:11:58;6.85;;;0.80;;
28589;SDS011;15788;48.794;9.190;2022-09-09T15:14:44;1.80;;;0.70;;
28589;SDS011;15788;48.794;9.190;2022-09-09T15:17:23;6.47;;;0.95;;
28589;SDS011;15788;48.794;9.190;2022-09-09T15:19:53;2.95;;;0.80;;
28589;SDS011;15788;48.794;9.190;2022-09-09T15:25:34;2.92;;;0.55;;
28589;SDS011;15788;48.794;9.190;2022-09-09T15:28:29;3.72;;;0.73;;
28589;SDS011;15788;48.794;9.190;2022-09-09T15:31:19;5.45;;;0.70;;
28589;SDS011;15788;48.794;9.190;2022-09-09T15:36:29;2.88;;;0.68;;
28589;SDS011;15788;48.794;9.190;2022-09-09T15:39:16;3.25;;;0.68;;
28589;SDS011;15788;48.794;9.190;2022-09-09T15:42:04;1.65;;;0.50;;
28589;SDS011;15788;48.794;9.190;2022-09-09T15:47:58;2.63;;;0.70;;
28589;SDS011;15788;48.794;9.190;2022-09-09T15:50:28;1.52;;;0.60;;
28589;SDS011;15788;48.794;9.190;2022-09-09T15:53:03;5.32;;;0.85;;
28589;SDS011;15788;48.794;9.190;2022-09-09T15:55:31;2.78;;;1.00;;
28589;SDS011;15788;48.794;9.190;2022-09-09T15:57:56;3.80;;;1.17;;
28589;SDS011;15788;48.794;9.190;2022-09-09T16:00:37;6.25;;;1.13;;
28589;SDS011;15788;48.794;9.190;2022-09-09T16:03:13;2.60;;;0.80;;
28589;SDS011;15788;48.794;9.190;2022-09-09T16:06:56;2.95;;;0.90;;
28589;SDS011;15788;48.794;9.190;2022-09-09T16:09:34;1.67;;;0.60;;
28589;SDS011;15788;48.794;9.190;2022-09-09T16:12:37;8.45;;;1.30;;
28589;SDS011;15788;48.794;9.190;2022-09-09T16:15:05;3.40;;;1.00;;
28589;SDS011;15788;48.794;9.190;2022-09-09T16:17:56;3.13;;;0.95;;
28589;SDS011;15788;48.794;9.190;2022-09-09T16:20:54;1.98;;;0.82;;
28589;SDS011;15788;48.794;9.190;2022-09-09T16:23:30;2.35;;;0.77;;
28589;SDS011;15788;48.794;9.190;2022-09-09T16:26:20;5.15;;;0.95;;
28589;SDS011;15788;48.794;9.190;2022-09-09T16:36:43;4.25;;;1.13;;
28589;SDS011;15788;48.794;9.190;2022-09-09T16:39:57;3.50;;;0.82;;
28589;SDS011;15788;48.794;9.190;2022-09-09T16:49:38;1.63;;;0.80;;
28589;SDS011;15788;48.794;9.190;2022-09-09T16:52:40;3.55;;;1.13;;
28589;SDS011;15788;48.794;9.190;2022-09-09T16:58:17;3.95;;;2.90;;
28589;SDS011;15788;48.794;9.190;2022-09-09T17:04:44;1.73;;;1.20;;
28589;SDS011;15788;48.794;9.190;2022-09-09T17:07:38;2.28;;;1.00;;
28589;SDS011;15788;48.794;9.190;2022-09-09T17:10:21;2.63;;;0.90;;
28589;SDS011;15788;48.794;9.190;2022-09-09T17:16:32;1.75;;;0.40;;
28589;SDS011;15788;48.794;9.190;2022-09-09T17:19:54;0.50;;;0.30;;
28589;SDS011;15788;48.794;9.190;2022-09-09T17:22:47;1.08;;;0.30;;
28589;SDS011;15788;48.794;9.190;2022-09-09T17:28:32;0.73;;;0.40;;
28589;SDS011;15788;48.794;9.190;2022-09-09T17:31:24;1.73;;;0.43;;
28589;SDS011;15788;48.794;9.190;2022-09-09T17:34:24;1.25;;;0.30;;
28589;SDS011;15788;48.794;9.190;2022-09-09T17:46:42;1.05;;;0.30;;
28589;SDS011;15788;48.794;9.190;2022-09-09T18:01:45;1.77;;;0.40;;
28589;SDS011;15788;48.794;9.190;2022-09-09T18:04:21;0.80;;;0.47;;
28589;SDS011;15788;48.794;9.190;2022-09-09T18:06:51;2.28;;;0.50;;
28589;SDS011;15788;48.794;9.190;2022-09-09T18:09:24;0.93;;;0.55;;
28589;SDS011;15788;48.794;9.190;2022-09-09T18:11:59;1.30;;;0.47;;
28589;SDS011;15788;48.794;9.190;2022-09-09T18:14:41;3.70;;;0.63;;
28589;SDS011;15788;48.794;9.190;2022-09-09T18:17:13;1.45;;;0.50;;
28589;SDS011;15788;48.794;9.190;2022-09-09T18:19:41;3.25;;;0.70;;
28589;SDS011;15788;48.794;9.190;2022-09-09T18:22:17;1.75;;;0.68;;
28589;SDS011;15788;48.794;9.190;2022-09-09T18:27:41;3.38;;;0.82;;
28589;SDS011;15788;48.794;9.190;2022-09-09T18:30:12;1.35;;;0.70;;
28589;SDS011;15788;48.794;9.190;2022-09-09T18:32:49;1.75;;;0.52;;
28589;SDS011;15788;48.794;9.190;2022-09-09T18:35:16;1.83;;;0.60;;
28589;SDS011;15788;48.794;9.190;2022-09-09T18:37:48;1.20;;;0.55;;
28589;SDS011;15788;48.794;9.190;2022-09-09T18:40:16;1.30;;;0.70;;
28589;SDS011;15788;48.794;9.190;2022-09-09T18:42:50;1.42;;;0.40;;
28589;SDS011;15788;48.794;9.190;2022-09-09T18:45:19;2.83;;;0.57;;
28589;SDS011;15788;48.794;9.190;2022-09-09T18:48:04;4.03;;;0.80;;
28589;SDS011;15788;48.794;9.190;2022-09-09T18:50:30;1.67;;;0.80;;
28589;SDS011;15788;48.794;9.190;2022-09-09T18:52:55;1.15;;;0.60;;
28589;SDS011;15788;48.794;9.190;2022-09-09T18:55:20;4.85;;;0.90;;
28589;SDS011;15788;48.794;9.190;2022-09-09T18:57:46;2.03;;;0.70;;
28589;SDS011;15788;48.794;9.190;2022-09-09T19:00:12;1.77;;;0.70;;
28589;SDS011;15788;48.794;9.190;2022-09-09T19:02:37;3.13;;;0.80;;
28589;SDS011;15788;48.794;9.190;2022-09-09T19:05:03;1.77;;;0.70;;
28589;SDS011;15788;48.794;9.190;2022-09-09T19:07:28;2.35;;;0.65;;
28589;SDS011;15788;48.794;9.190;2022-09-09T19:09:53;3.47;;;0.90;;
28589;SDS011;15788;48.794;9.190;2022-09-09T19:12:19;1.05;;;0.70;;
28589;SDS011;15788;48.794;9.190;2022-09-09T19:14:44;3.88;;;0.77;;
28589;SDS011;15788;48.794;9.190;2022-09-09T19:17:10;2.28;;;0.90;;
28589;SDS011;15788;48.794;9.190;2022-09-09T19:19:37;2.30;;;0.80;;
28589;SDS011;15788;48.794;9.190;2022-09-09T19:22:02;1.70;;;0.70;;
28589;SDS011;15788;48.794;9.190;2022-09-09T19:24:31;2.90;;;0.70;;
28589;SDS011;15788;48.794;9.190;2022-09-09T19:26:58;2.13;;;0.95;;
28589;SDS011;15788;48.794;9.190;2022-09-09T19:29:26;2.83;;;0.93;;
28589;SDS011;15788;48.794;9.190;2022-09-09T19:31:53;2.22;;;0.93;;
28589;SDS011;15788;48.794;9.190;2022-09-09T19:34:19;1.25;;;0.80;;
28589;SDS011;15788;48.794;9.190;2022-09-09T19:36:45;2.90;;;0.88;;
28589;SDS011;15788;48.794;9.190;2022-09-09T19:39:12;3.47;;;0.70;;
28589;SDS011;15788;48.794;9.190;2022-09-09T19:41:38;1.77;;;0.88;;
28589;SDS011;15788;48.794;9.190;2022-09-09T19:44:04;2.00;;;0.88;;
28589;SDS011;15788;48.794;9.190;2022-09-09T19:46:32;3.97;;;1.02;;
28589;SDS011;15788;48.794;9.190;2022-09-09T19:48:58;2.78;;;0.98;;
28589;SDS011;15788;48.794;9.190;2022-09-09T19:51:27;1.38;;;0.80;;
28589;SDS011;15788;48.794;9.190;2022-09-09T19:53:55;2.60;;;1.00;;
28589;SDS011;15788;48.794;9.190;2022-09-09T19:56:27;2.13;;;0.98;;
28589;SDS011;15788;48.794;9.190;2022-09-09T19:58:53;4.55;;;0.80;;
28589;SDS011;15788;48.794;9.190;2022-09-09T20:03:51;1.35;;;0.77;;
28589;SDS011;15788;48.794;9.190;2022-09-09T20:06:19;1.23;;;0.80;;
28589;SDS011;15788;48.794;9.190;2022-09-09T20:08:47;1.92;;;0.80;;
28589;SDS011;15788;48.794;9.190;2022-09-09T20:11:14;1.77;;;0.80;;
28589;SDS011;15788;48.794;9.190;2022-09-09T20:13:40;0.85;;;0.50;;
28589;SDS011;15788;48.794;9.190;2022-09-09T20:16:16;1.13;;;0.57;;
28589;SDS011;15788;48.794;9.190;2022-09-09T20:18:47;1.13;;;0.68;;
28589;SDS011;15788;48.794;9.190;2022-09-09T20:21:17;0.98;;;0.60;;
28589;SDS011;15788;48.794;9.190;2022-09-09T20:23:44;0.82;;;0.68;;
28589;SDS011;15788;48.794;9.190;2022-09-09T20:26:11;1.10;;;0.63;;
28589;SDS011;15788;48.794;9.190;2022-09-09T20:28:38;0.55;;;0.45;;
28589;SDS011;15788;48.794;9.190;2022-09-09T20:33:37;0.55;;;0.50;;
28589;SDS011;15788;48.794;9.190;2022-09-09T20:36:14;1.20;;;0.55;;
28589;SDS011;15788;48.794;9.190;2022-09-09T20:38:43;1.15;;;0.50;;
28589;SDS011;15788;48.794;9.190;2022-09-09T20:41:10;1.75;;;0.75;;
28589;SDS011;15788;48.794;9.190;2022-09-09T20:43:38;1.85;;;0.50;;
28589;SDS011;15788;48.794;9.190;2022-09-09T20:46:04;0.82;;;0.50;;
28589;SDS011;15788;48.794;9.190;2022-09-09T20:48:30;1.05;;;0.60;;
28589;SDS011;15788;48.794;9.190;2022-09-09T20:51:01;2.88;;;0.60;;
28589;SDS011;15788;48.794;9.190;2022-09-09T20:53:27;1.67;;;0.73;;
28589;SDS011;15788;48.794;9.190;2022-09-09T20:55:52;2.85;;;0.60;;
28589;SDS011;15788;48.794;9.190;2022-09-09T20:58:23;0.80;;;0.60;;
28589;SDS011;15788;48.794;9.190;2022-09-09T21:00:49;0.88;;;0.45;;
28589;SDS011;15788;48.794;9.190;2022-09-09T21:03:14;1.00;;;0.63;;
28589;SDS011;15788;48.794;9.190;2022-09-09T21:05:40;6.22;;;0.90;;
28589;SDS011;15788;48.794;9.190;2022-09-09T21:08:05;2.13;;;0.70;;
28589;SDS011;15788;48.794;9.190;2022-09-09T21:10:30;5.15;;;1.02;;
28589;SDS011;15788;48.794;9.190;2022-09-09T21:12:56;2.22;;;0.80;;
28589;SDS011;15788;48.794;9.190;2022-09-09T21:15:22;2.47;;;1.00;;
28589;SDS011;15788;48.794;9.190;2022-09-09T21:17:48;2.15;;;0.70;;
28589;SDS011;15788;48.794;9.190;2022-09-09T21:20:13;3.30;;;0.95;;
28589;SDS011;15788;48.794;9.190;2022-09-09T21:22:39;4.72;;;0.93;;
28589;SDS011;15788;48.794;9.190;2022-09-09T21:25:04;2.00;;;0.80;;
28589;SDS011;15788;48.794;9.190;2022-09-09T21:27:30;3.05;;;0.80;;
28589;SDS011;15788;48.794;9.190;2022-09-09T21:29:56;2.78;;;0.80;;
28589;SDS011;15788;48.794;9.190;2022-09-09T21:32:21;2.00;;;1.02;;
28589;SDS011;15788;48.794;9.190;2022-09-09T21:34:46;1.55;;;0.60;;
28589;SDS011;15788;48.794;9.190;2022-09-09T21:37:12;2.65;;;0.90;;
28589;SDS011;15788;48.794;9.190;2022-09-09T21:39:38;3.38;;;1.13;;
28589;SDS011;15788;48.794;9.190;2022-09-09T21:42:03;2.25;;;0.80;;
28589;SDS011;15788;48.794;9.190;2022-09-09T21:44:28;2.08;;;0.75;;
28589;SDS011;15788;48.794;9.190;2022-09-09T21:46:54;1.70;;;0.70;;
28589;SDS011;15788;48.794;9.190;2022-09-09T21:49:19;7.18;;;0.82;;
28589;SDS011;15788;48.794;9.190;2022-09-09T21:51:44;4.07;;;0.90;;
28589;SDS011;15788;48.794;9.190;2022-09-09T21:54:11;4.25;;;1.08;;
28589;SDS011;15788;48.794;9.190;2022-09-09T21:56:36;3.88;;;0.90;;
28589;SDS011;15788;48.794;9.190;2022-09-09T21:59:02;2.70;;;0.80;;
28589;SDS011;15788;48.794;9.190;2022-09-09T22:01:28;2.53;;;0.80;;
28589;SDS011;15788;48.794;9.190;2022-09-09T22:03:56;3.95;;;0.70;;
28589;SDS011;15788;48.794;9.190;2022-09-09T22:06:22;3.72;;;0.75;;
28589;SDS011;15788;48.794;9.190;2022-09-09T22:08:47;2.50;;;1.00;;
28589;SDS011;15788;48.794;9.190;2022-09-09T22:11:22;4.63;;;0.90;;
28589;SDS011;15788;48.794;9.190;2022-09-09T22:14:02;5.35;;;1.17;;
28589;SDS011;15788;48.794;9.190;2022-09-09T22:16:36;6.43;;;1.15;;
28589;SDS011;15788;48.794;9.190;2022-09-09T22:19:09;6.97;;;0.90;;
28589;SDS011;15788;48.794;9.190;2022-09-09T22:22:03;19.30;;;1.60;;
28589;SDS011;15788;48.794;9.190;2022-09-09T22:31:14;18.45;;;1.20;;
28589;SDS011;15788;48.794;9.190;2022-09-09T22:34:14;14.02;;;1.60;;
28589;SDS011;15788;48.794;9.190;2022-09-09T22:37:07;9.93;;;1.35;;
28589;SDS011;15788;48.794;9.190;2022-09-09T22:40:03;14.65;;;1.50;;
28589;SDS011;15788;48.794;9.190;2022-09-09T22:46:03;5.38;;;1.23;;
28589;SDS011;15788;48.794;9.190;2022-09-09T22:49:10;12.38;;;1.38;;
28589;SDS011;15788;48.794;9.190;2022-09-09T22:52:10;12.57;;;1.38;;
28589;SDS011;15788;48.794;9.190;2022-09-09T22:55:17;10.70;;;1.48;;
28589;SDS011;15788;48.794;9.190;2022-09-09T23:04:23;17.55;;;1.85;;
28589;SDS011;15788;48.794;9.190;2022-09-09T23:06:56;8.45;;;1.50;;
28589;SDS011;15788;48.794;9.190;2022-09-09T23:09:28;5.10;;;1.15;;
28589;SDS011;15788;48.794;9.190;2022-09-09T23:12:18;8.75;;;1.50;;
28589;SDS011;15788;48.794;9.190;2022-09-09T23:14:51;8.85;;;1.40;;
28589;SDS011;15788;48.794;9.190;2022-09-09T23:17:19;17.92;;;2.00;;
28589;SDS011;15788;48.794;9.190;2022-09-09T23:19:44;12.85;;;1.75;;
28589;SDS011;15788;48.794;9.190;2022-09-09T23:22:17;10.90;;;1.92;;
28589;SDS011;15788;48.794;9.190;2022-09-09T23:25:00;10.07;;;1.92;;
28589;SDS011;15788;48.794;9.190;2022-09-09T23:27:32;7.07;;;1.38;;
28589;SDS011;15788;48.794;9.190;2022-09-09T23:29:58;6.18;;;1.25;;
28589;SDS011;15788;48.794;9.190;2022-09-09T23:32:23;8.90;;;1.80;;
28589;SDS011;15788;48.794;9.190;2022-09-09T23:34:57;8.90;;;1.40;;
28589;SDS011;15788;48.794;9.190;2022-09-09T23:37:23;9.68;;;1.48;;
28589;SDS011;15788;48.794;9.190;2022-09-09T23:45:36;6.47;;;1.20;;
28589;SDS011;15788;48.794;9.190;2022-09-09T23:48:08;6.82;;;1.60;;
28589;SDS011;15788;48.794;9.190;2022-09-09T23:50:36;7.13;;;1.20;;
28589;SDS011;15788;48.794;9.190;2022-09-09T23:53:04;3.97;;;1.20;;
28589;SDS011;15788;48.794;9.190;2022-09-09T23:55:47;6.00;;;1.73;;
28589;SDS011;15788;48.794;9.190;2022-09-09T23:58:16;6.70;;;1.40;;
